createdAt,value
2023-02-22T00:00:29.363Z,40.06
2023-02-22T00:02:37.732Z,39.80
2023-02-22T00:04:42.447Z,39.86
2023-02-22T00:06:47.737Z,39.76
2023-02-22T00:08:52.475Z,39.77
2023-02-22T00:10:57.233Z,39.82
2023-02-22T00:13:02.046Z,39.75
2023-02-22T00:15:06.785Z,39.93
2023-02-22T00:17:13.620Z,40.08
2023-02-22T00:19:20.847Z,39.96
2023-02-22T00:21:25.433Z,39.82
2023-02-22T00:23:32.027Z,40.03
2023-02-22T00:25:37.165Z,40.16
2023-02-22T00:27:41.923Z,39.89
2023-02-22T00:29:47.605Z,40.13
2023-02-22T00:31:52.324Z,40.02
2023-02-22T00:33:56.852Z,40.15
2023-02-22T00:36:04.067Z,40.27
2023-02-22T00:38:08.635Z,40.02
2023-02-22T00:40:13.615Z,40.14
2023-02-22T00:42:18.611Z,39.98
2023-02-22T00:44:23.136Z,40.13
2023-02-22T00:46:27.656Z,40.08
2023-02-22T00:48:32.278Z,40.13
2023-02-22T00:50:37.275Z,40.18
2023-02-22T00:52:44.934Z,40.12
2023-02-22T00:54:49.686Z,39.88
2023-02-22T00:56:54.756Z,39.95
2023-02-22T00:58:59.594Z,40.19
2023-02-22T01:01:04.210Z,39.97
2023-02-22T01:03:09.505Z,40.07
2023-02-22T01:05:16.472Z,40.02
2023-02-22T01:07:21.496Z,39.94
2023-02-22T01:09:28.814Z,40.05
2023-02-22T01:11:33.517Z,39.91
2023-02-22T01:13:38.985Z,39.82
2023-02-22T01:15:45.381Z,39.97
2023-02-22T01:17:51.012Z,40.04
2023-02-22T01:19:55.862Z,39.95
2023-02-22T01:22:00.476Z,39.90
2023-02-22T01:24:04.986Z,39.92
2023-02-22T01:26:12.295Z,39.98
2023-02-22T01:28:17.771Z,40.27
2023-02-22T01:30:24.410Z,40.14
2023-02-22T01:32:28.998Z,40.16
2023-02-22T01:34:33.767Z,40.25
2023-02-22T01:36:38.279Z,40.22
2023-02-22T01:38:43.056Z,40.08
2023-02-22T01:40:50.733Z,40.13
2023-02-22T01:42:59.940Z,39.99
2023-02-22T01:45:19.441Z,39.96
2023-02-22T01:47:23.968Z,40.28
2023-02-22T01:49:30.350Z,39.93
2023-02-22T01:51:38.267Z,39.95
2023-02-22T01:53:48.244Z,39.94
2023-02-22T01:55:53.949Z,40.00
2023-02-22T01:58:01.221Z,40.21
2023-02-22T02:00:11.652Z,39.96
2023-02-22T02:02:21.760Z,39.92
2023-02-22T02:04:27.458Z,40.19
2023-02-22T02:06:36.038Z,40.33
2023-02-22T02:08:49.910Z,39.96
2023-02-22T02:10:56.036Z,39.94
2023-02-22T02:13:04.377Z,40.10
2023-02-22T02:15:19.887Z,39.88
2023-02-22T02:17:25.541Z,40.11
2023-02-22T02:19:36.284Z,39.97
2023-02-22T02:21:51.345Z,40.11
2023-02-22T02:24:09.203Z,40.08
2023-02-22T02:26:29.358Z,40.29
2023-02-22T02:28:50.696Z,40.07
2023-02-22T02:31:12.122Z,40.08
2023-02-22T02:33:21.491Z,40.35
2023-02-22T02:35:32.322Z,40.24
2023-02-22T02:37:39.810Z,40.26
2023-02-22T02:39:50.009Z,40.25
2023-02-22T02:41:54.879Z,40.05
2023-02-22T02:44:02.447Z,40.22
2023-02-22T02:46:12.017Z,40.18
2023-02-22T02:48:20.230Z,40.17
2023-02-22T02:50:28.038Z,39.91
2023-02-22T02:52:34.150Z,39.97
2023-02-22T02:54:40.071Z,40.30
2023-02-22T02:56:45.657Z,40.07
2023-02-22T02:58:53.108Z,40.19
2023-02-22T03:01:05.873Z,40.00
2023-02-22T03:03:15.648Z,39.99
2023-02-22T03:05:33.188Z,40.10
2023-02-22T03:07:46.179Z,40.01
2023-02-22T03:09:58.597Z,40.01
2023-02-22T03:12:09.865Z,40.09
2023-02-22T03:14:19.149Z,40.35
2023-02-22T03:16:27.550Z,40.25
2023-02-22T03:18:35.026Z,40.23
2023-02-22T03:20:47.730Z,40.31
2023-02-22T03:22:56.215Z,40.23
2023-02-22T03:25:07.158Z,40.04
2023-02-22T03:27:15.362Z,40.28
2023-02-22T03:29:26.740Z,40.05
2023-02-22T03:31:33.398Z,40.28
2023-02-22T03:33:41.641Z,40.22
2023-02-22T03:35:51.310Z,40.38
2023-02-22T03:38:08.297Z,40.24
2023-02-22T03:40:16.799Z,40.28
2023-02-22T03:42:25.602Z,40.13
2023-02-22T03:44:32.148Z,40.34
2023-02-22T03:46:38.734Z,40.02
2023-02-22T03:48:46.959Z,40.21
2023-02-22T03:50:54.964Z,40.24
2023-02-22T03:53:01.148Z,40.14
2023-02-22T03:55:11.337Z,40.17
2023-02-22T03:57:18.826Z,40.39
2023-02-22T03:59:25.413Z,40.26
2023-02-22T04:01:30.042Z,40.49
2023-02-22T04:03:34.792Z,40.37
2023-02-22T04:05:39.881Z,40.27
2023-02-22T04:07:47.788Z,40.25
2023-02-22T04:09:53.528Z,40.26
2023-02-22T04:11:58.734Z,40.34
2023-02-22T04:14:04.129Z,40.25
2023-02-22T04:16:09.379Z,40.38
2023-02-22T04:18:14.527Z,40.45
2023-02-22T04:20:20.146Z,40.09
2023-02-22T04:22:47.651Z,40.26
2023-02-22T04:24:53.812Z,40.17
2023-02-22T04:26:59.840Z,40.41
2023-02-22T04:29:04.769Z,40.48
2023-02-22T04:31:15.397Z,40.28
2023-02-22T04:33:20.862Z,40.15
2023-02-22T04:35:26.121Z,40.10
2023-02-22T04:37:30.638Z,40.38
2023-02-22T04:39:38.002Z,40.25
2023-02-22T04:41:42.594Z,40.56
2023-02-22T04:43:47.459Z,40.29
2023-02-22T04:45:58.711Z,40.51
2023-02-22T04:48:03.270Z,40.51
2023-02-22T04:50:08.516Z,40.29
2023-02-22T04:52:13.204Z,40.25
2023-02-22T04:54:18.484Z,40.47
2023-02-22T04:56:27.706Z,40.43
2023-02-22T04:58:32.347Z,40.44
2023-02-22T05:00:36.978Z,40.37
2023-02-22T05:02:41.886Z,40.50
2023-02-22T05:04:46.534Z,40.61
2023-02-22T05:06:52.685Z,40.54
2023-02-22T05:08:58.809Z,40.46
2023-02-22T05:11:03.340Z,40.37
2023-02-22T05:13:10.454Z,40.50
2023-02-22T05:15:19.715Z,40.42
2023-02-22T05:17:24.352Z,40.49
2023-02-22T05:19:28.880Z,40.45
2023-02-22T05:21:33.558Z,40.46
2023-02-22T05:23:38.144Z,40.74
2023-02-22T05:25:42.691Z,40.53
2023-02-22T05:27:47.160Z,40.31
2023-02-22T05:29:54.374Z,40.59
2023-02-22T05:31:59.031Z,40.34
2023-02-22T05:34:03.673Z,40.79
2023-02-22T05:36:08.676Z,40.70
2023-02-22T05:38:15.375Z,40.65
2023-02-22T05:40:21.586Z,40.78
2023-02-22T05:42:26.236Z,40.64
2023-02-22T05:44:30.956Z,40.93
2023-02-22T05:46:38.283Z,40.83
2023-02-22T05:48:42.816Z,40.76
2023-02-22T05:50:47.372Z,40.76
2023-02-22T05:52:51.854Z,40.65
2023-02-22T05:54:56.459Z,40.70
2023-02-22T05:57:01.091Z,40.65
2023-02-22T05:59:05.946Z,40.97
2023-02-22T06:01:10.481Z,40.64
2023-02-22T06:03:17.690Z,40.98
2023-02-22T06:05:22.376Z,40.87
2023-02-22T06:07:27.350Z,40.61
2023-02-22T06:09:31.888Z,40.67
2023-02-22T06:11:37.349Z,40.57
2023-02-22T06:13:42.240Z,40.85
2023-02-22T06:15:46.814Z,40.92
2023-02-22T06:17:51.640Z,40.84
2023-02-22T06:19:58.896Z,40.80
2023-02-22T06:22:03.706Z,40.82
2023-02-22T06:24:08.713Z,40.72
2023-02-22T06:26:13.237Z,40.80
2023-02-22T06:28:18.296Z,40.62
2023-02-22T06:30:24.030Z,40.72
2023-02-22T06:32:28.798Z,40.74
2023-02-22T06:34:33.540Z,40.60
2023-02-22T06:36:40.648Z,40.58
2023-02-22T06:38:45.172Z,40.59
2023-02-22T06:40:49.795Z,40.46
2023-02-22T06:42:54.445Z,40.59
2023-02-22T06:44:59.066Z,40.50
2023-02-22T06:47:03.604Z,40.59
2023-02-22T06:49:08.717Z,40.67
2023-02-22T06:51:13.253Z,40.64
2023-02-22T06:53:21.075Z,40.57
2023-02-22T06:55:27.208Z,40.79
2023-02-22T06:57:31.838Z,40.58
2023-02-22T06:59:36.369Z,40.64
2023-02-22T07:01:43.494Z,40.86
2023-02-22T07:03:48.057Z,40.58
2023-02-22T07:05:52.656Z,40.59
2023-02-22T07:07:58.440Z,40.62
2023-02-22T07:10:05.646Z,40.62
2023-02-22T07:12:10.605Z,40.65
2023-02-22T07:14:15.634Z,40.63
2023-02-22T07:16:20.163Z,40.97
2023-02-22T07:18:24.985Z,40.66
2023-02-22T07:20:30.628Z,40.69
2023-02-22T07:22:35.252Z,40.89
2023-02-22T07:24:41.294Z,40.61
2023-02-22T07:26:48.475Z,40.63
2023-02-22T07:28:53.123Z,40.78
2023-02-22T07:30:57.699Z,40.99
2023-02-22T07:33:04.875Z,40.82
2023-02-22T07:35:09.984Z,40.61
2023-02-22T07:37:14.546Z,40.82
2023-02-22T07:39:19.229Z,41.06
2023-02-22T07:41:23.868Z,41.10
2023-02-22T07:43:31.737Z,40.92
2023-02-22T07:45:37.648Z,40.89
2023-02-22T07:47:42.299Z,40.83
2023-02-22T07:49:46.985Z,40.64
2023-02-22T07:51:51.575Z,40.68
2023-02-22T07:53:56.105Z,41.04
2023-02-22T07:56:00.875Z,41.10
2023-02-22T07:58:07.562Z,40.78
2023-02-22T08:00:16.028Z,40.89
2023-02-22T08:02:20.797Z,40.88
2023-02-22T08:04:25.379Z,40.89
2023-02-22T08:06:30.226Z,40.85
2023-02-22T08:08:34.786Z,40.90
2023-02-22T08:10:39.355Z,41.31
2023-02-22T08:12:44.009Z,40.93
2023-02-22T08:14:48.713Z,40.88
2023-02-22T08:16:55.930Z,41.05
2023-02-22T08:19:00.489Z,41.14
2023-02-22T08:21:05.065Z,40.87
2023-02-22T08:23:09.896Z,40.88
2023-02-22T08:25:15.642Z,40.83
2023-02-22T08:27:20.313Z,41.14
2023-02-22T08:29:33.443Z,40.91
2023-02-22T08:31:38.119Z,41.30
2023-02-22T08:33:45.330Z,40.93
2023-02-22T08:35:51.858Z,41.11
2023-02-22T08:37:58.722Z,41.01
2023-02-22T08:40:03.234Z,41.31
2023-02-22T08:42:09.698Z,41.05
2023-02-22T08:44:14.487Z,41.04
2023-02-22T08:46:19.245Z,41.40
2023-02-22T08:48:24.243Z,41.26
2023-02-22T08:50:33.812Z,41.46
2023-02-22T08:52:38.723Z,41.32
2023-02-22T08:54:43.335Z,41.30
2023-02-22T08:56:48.168Z,41.03
2023-02-22T08:58:52.747Z,41.09
2023-02-22T09:00:58.134Z,41.21
2023-02-22T09:03:03.646Z,41.10
2023-02-22T09:05:08.828Z,41.27
2023-02-22T09:07:16.012Z,41.31
2023-02-22T09:09:21.632Z,41.42
2023-02-22T09:11:26.202Z,41.27
2023-02-22T09:13:30.701Z,41.00
2023-02-22T09:15:36.047Z,41.12
2023-02-22T09:17:40.683Z,41.04
2023-02-22T09:19:45.438Z,40.94
2023-02-22T09:21:55.079Z,41.24
2023-02-22T09:24:08.539Z,41.09
2023-02-22T09:26:16.058Z,40.96
2023-02-22T09:28:20.707Z,40.97
2023-02-22T09:30:27.805Z,41.03
2023-02-22T09:32:32.525Z,40.88
2023-02-22T09:34:37.411Z,40.80
2023-02-22T09:36:42.314Z,40.63
2023-02-22T09:38:47.028Z,40.81
2023-02-22T09:40:56.288Z,40.74
2023-02-22T09:43:11.055Z,40.63
2023-02-22T09:45:19.081Z,40.78
2023-02-22T09:47:32.539Z,41.01
2023-02-22T09:49:40.140Z,40.63
2023-02-22T09:51:49.437Z,41.01
2023-02-22T09:53:56.911Z,40.73
2023-02-22T09:56:10.593Z,40.63
2023-02-22T09:58:21.567Z,40.46
2023-02-22T10:00:29.669Z,40.88
2023-02-22T10:02:45.801Z,40.61
2023-02-22T10:04:58.468Z,40.37
2023-02-22T10:07:19.472Z,40.46
2023-02-22T10:09:25.620Z,40.37
2023-02-22T10:11:48.770Z,40.58
2023-02-22T10:14:01.810Z,40.90
2023-02-22T10:16:12.212Z,40.95
2023-02-22T10:18:32.776Z,40.65
2023-02-22T10:20:44.628Z,40.90
2023-02-22T10:22:56.813Z,40.83
2023-02-22T10:25:04.954Z,40.97
2023-02-22T10:27:10.411Z,40.72
2023-02-22T10:29:22.221Z,40.68
2023-02-22T10:31:29.716Z,40.88
2023-02-22T10:33:36.545Z,40.88
2023-02-22T10:35:42.684Z,40.54
2023-02-22T10:37:48.391Z,40.43
2023-02-22T10:39:55.244Z,40.32
2023-02-22T10:42:05.992Z,40.17
2023-02-22T10:44:11.054Z,40.13
2023-02-22T10:46:21.764Z,40.11
2023-02-22T10:48:27.846Z,40.15
2023-02-22T10:50:34.882Z,40.25
2023-02-22T10:52:39.409Z,40.59
2023-02-22T10:54:45.535Z,40.36
2023-02-22T10:56:50.882Z,40.57
2023-02-22T10:58:57.753Z,40.40
2023-02-22T11:01:02.578Z,40.59
2023-02-22T11:03:20.046Z,40.50
2023-02-22T11:05:32.053Z,40.48
2023-02-22T11:07:37.462Z,40.42
2023-02-22T11:09:53.045Z,40.23
2023-02-22T11:12:11.375Z,40.14
2023-02-22T11:14:17.971Z,40.41
2023-02-22T11:16:28.778Z,40.00
2023-02-22T11:18:37.192Z,40.46
2023-02-22T11:20:42.272Z,39.97
2023-02-22T11:22:46.813Z,40.05
2023-02-22T11:24:57.902Z,40.34
2023-02-22T11:27:04.177Z,39.85
2023-02-22T11:29:16.324Z,40.19
2023-02-22T11:31:22.552Z,39.93
2023-02-22T11:33:29.537Z,40.04
2023-02-22T11:35:39.008Z,40.33
2023-02-22T11:37:43.895Z,40.28
2023-02-22T11:39:48.572Z,39.89
2023-02-22T11:41:53.265Z,39.79
2023-02-22T11:43:58.006Z,39.95
2023-02-22T11:46:04.961Z,40.27
2023-02-22T11:48:10.933Z,39.76
2023-02-22T11:50:20.403Z,39.93
2023-02-22T11:52:32.091Z,39.61
2023-02-22T11:54:48.063Z,40.11
2023-02-22T11:56:55.814Z,39.67
2023-02-22T11:59:08.180Z,39.83
2023-02-22T12:01:17.576Z,39.84
2023-02-22T12:03:39.695Z,39.71
2023-02-22T12:05:59.728Z,39.49
2023-02-22T12:08:19.275Z,39.57
2023-02-22T12:12:52.996Z,39.84
2023-02-22T12:15:02.411Z,39.32
2023-02-22T12:17:13.930Z,39.44
2023-02-22T12:19:25.364Z,39.53
2023-02-22T12:21:30.701Z,39.76
2023-02-22T12:23:44.921Z,39.63
2023-02-22T12:26:05.456Z,39.80
2023-02-22T12:28:24.202Z,39.74
2023-02-22T12:30:31.081Z,39.43
2023-02-22T12:32:38.436Z,39.83
2023-02-22T12:34:46.727Z,39.81
2023-02-22T12:36:53.405Z,39.53
2023-02-22T12:39:07.724Z,39.67
2023-02-22T12:41:18.586Z,39.41
2023-02-22T12:43:26.597Z,39.43
2023-02-22T12:45:34.038Z,39.80
2023-02-22T12:47:40.315Z,39.55
2023-02-22T12:49:48.073Z,39.94
2023-02-22T12:51:58.779Z,39.63
2023-02-22T12:54:11.986Z,39.64
2023-02-22T12:56:22.914Z,39.80
2023-02-22T12:58:31.546Z,39.60
2023-02-22T13:00:41.201Z,39.46
2023-02-22T13:02:47.600Z,39.92
2023-02-22T13:04:52.341Z,39.87
2023-02-22T13:07:07.852Z,39.58
2023-02-22T13:09:27.525Z,39.47
2023-02-22T13:11:37.039Z,39.33
2023-02-22T13:13:47.406Z,39.55
2023-02-22T13:15:56.035Z,39.43
2023-02-22T13:18:05.151Z,39.29
2023-02-22T13:20:12.330Z,39.16
2023-02-22T13:22:19.918Z,39.36
2023-02-22T13:24:30.573Z,38.95
2023-02-22T13:26:41.170Z,39.00
2023-02-22T13:28:48.331Z,39.17
2023-02-22T13:30:59.368Z,39.04
2023-02-22T13:33:26.750Z,39.34
2023-02-22T13:35:38.508Z,39.05
2023-02-22T13:38:01.817Z,38.90
2023-02-22T13:40:21.368Z,38.86
2023-02-22T13:42:36.991Z,38.87
2023-02-22T13:45:03.472Z,39.01
2023-02-22T13:47:20.846Z,38.81
2023-02-22T13:49:38.871Z,39.25
2023-02-22T13:51:50.766Z,38.73
2023-02-22T13:53:58.318Z,39.05
2023-02-22T13:56:03.547Z,39.17
2023-02-22T13:58:12.586Z,38.71
2023-02-22T14:00:28.106Z,38.88
2023-02-22T14:02:36.960Z,38.70
2023-02-22T14:04:42.358Z,38.95
2023-02-22T14:06:46.921Z,38.81
2023-02-22T14:08:51.607Z,38.85
2023-02-22T14:10:57.894Z,38.99
2023-02-22T14:13:07.066Z,38.65
2023-02-22T14:15:29.108Z,38.64
2023-02-22T14:17:34.606Z,38.67
2023-02-22T14:19:39.213Z,38.72
2023-02-22T14:22:02.247Z,39.16
2023-02-22T14:24:10.798Z,38.90
2023-02-22T14:26:17.851Z,38.81
2023-02-22T14:28:46.613Z,38.90
2023-02-22T14:31:07.608Z,38.75
2023-02-22T14:33:27.733Z,38.67
2023-02-22T14:35:48.174Z,39.10
2023-02-22T14:37:57.765Z,38.85
2023-02-22T14:40:13.328Z,39.14
2023-02-22T14:42:20.879Z,39.18
2023-02-22T14:44:30.913Z,38.94
2023-02-22T14:46:41.714Z,38.82
2023-02-22T14:48:47.050Z,38.87
2023-02-22T14:50:54.834Z,38.92
2023-02-22T14:53:03.828Z,38.89
2023-02-22T14:55:14.475Z,38.90
2023-02-22T14:57:24.563Z,39.18
2023-02-22T14:59:30.859Z,39.20
2023-02-22T15:01:52.693Z,38.91
2023-02-22T15:04:18.812Z,39.08
2023-02-22T15:06:25.876Z,39.08
2023-02-22T15:08:32.226Z,39.06
2023-02-22T15:10:43.052Z,39.10
2023-02-22T15:12:53.847Z,38.95
2023-02-22T15:15:14.190Z,39.14
2023-02-22T15:17:24.769Z,38.97
2023-02-22T15:19:30.530Z,39.34
2023-02-22T15:21:35.073Z,39.42
2023-02-22T15:23:44.436Z,39.39
2023-02-22T15:25:51.144Z,39.18
2023-02-22T15:27:55.746Z,39.44
2023-02-22T15:30:04.813Z,39.27
2023-02-22T15:32:32.074Z,39.08
2023-02-22T15:34:36.755Z,39.09
2023-02-22T15:36:41.480Z,39.36
2023-02-22T15:38:50.527Z,39.33
2023-02-22T15:41:04.974Z,39.36
2023-02-22T15:43:11.193Z,38.87
2023-02-22T15:45:20.016Z,39.01
2023-02-22T15:47:28.142Z,38.92
2023-02-22T15:49:37.086Z,39.00
2023-02-22T15:51:43.205Z,39.17
2023-02-22T15:53:48.810Z,39.36
2023-02-22T15:55:58.881Z,39.43
2023-02-22T15:58:04.728Z,39.39
2023-02-22T16:00:11.294Z,39.49
2023-02-22T16:02:33.358Z,39.74
2023-02-22T16:04:38.247Z,39.60
2023-02-22T16:06:44.195Z,39.68
2023-02-22T16:08:55.252Z,39.54
2023-02-22T16:11:02.226Z,39.58
2023-02-22T16:13:07.654Z,39.60
2023-02-22T16:15:18.131Z,39.56
2023-02-22T16:17:35.590Z,39.90
2023-02-22T16:19:42.755Z,39.57
2023-02-22T16:21:55.092Z,39.60
2023-02-22T16:24:13.848Z,39.82
2023-02-22T16:26:27.757Z,39.56
2023-02-22T16:28:35.870Z,39.64
2023-02-22T16:30:42.226Z,39.83
2023-02-22T16:32:49.863Z,40.05
2023-02-22T16:34:54.597Z,39.83
2023-02-22T16:36:59.270Z,39.75
2023-02-22T16:39:03.680Z,40.02
2023-02-22T16:41:09.776Z,39.65
2023-02-22T16:43:15.562Z,39.92
2023-02-22T16:45:20.564Z,40.11
2023-02-22T16:47:25.045Z,39.71
2023-02-22T16:49:32.144Z,39.76
2023-02-22T16:51:42.274Z,39.74
2023-02-22T16:53:48.845Z,39.76
2023-02-22T16:55:57.832Z,40.27
2023-02-22T16:58:04.230Z,39.93
2023-02-22T17:00:09.999Z,40.13
2023-02-22T17:02:15.748Z,40.20
2023-02-22T17:04:20.923Z,40.25
2023-02-22T17:06:29.311Z,40.22
2023-02-22T17:08:34.862Z,39.99
2023-02-22T17:10:39.456Z,39.75
2023-02-22T17:12:44.708Z,39.89
2023-02-22T17:14:49.270Z,40.18
2023-02-22T17:16:53.771Z,39.97
2023-02-22T17:18:58.345Z,39.98
2023-02-22T17:21:04.312Z,40.08
2023-02-22T17:23:12.449Z,39.97
2023-02-22T17:25:22.438Z,40.04
2023-02-22T17:27:27.253Z,40.14
2023-02-22T17:29:31.787Z,40.31
2023-02-22T17:31:36.827Z,40.30
2023-02-22T17:33:44.158Z,40.24
2023-02-22T17:35:49.975Z,40.38
2023-02-22T17:37:54.516Z,40.19
2023-02-22T17:40:01.699Z,40.26
2023-02-22T17:42:06.271Z,40.34
2023-02-22T17:44:10.887Z,40.35
2023-02-22T17:46:15.784Z,40.54
2023-02-22T17:48:22.345Z,40.60
2023-02-22T17:50:31.838Z,40.51
2023-02-22T17:52:36.364Z,40.75
2023-02-22T17:54:40.789Z,40.24
2023-02-22T17:56:47.977Z,40.57
2023-02-22T17:58:55.131Z,40.54
2023-02-22T18:00:59.801Z,40.31
2023-02-22T18:03:05.069Z,40.77
2023-02-22T18:05:10.555Z,40.36
2023-02-22T18:07:19.251Z,40.62
2023-02-22T18:09:23.938Z,40.42
2023-02-22T18:11:28.984Z,40.50
2023-02-22T18:13:36.114Z,40.83
2023-02-22T18:15:42.057Z,40.80
2023-02-22T18:17:47.380Z,40.87
2023-02-22T18:19:51.899Z,40.75
2023-02-22T18:22:00.290Z,40.42
2023-02-22T18:24:04.884Z,40.56
2023-02-22T18:26:11.645Z,40.80
2023-02-22T18:28:16.689Z,40.89
2023-02-22T18:30:24.424Z,40.78
2023-02-22T18:32:32.016Z,40.63
2023-02-22T18:34:36.657Z,40.67
2023-02-22T18:36:41.345Z,40.91
2023-02-22T18:38:46.204Z,40.72
2023-02-22T18:40:51.538Z,40.92
2023-02-22T18:42:56.033Z,40.75
2023-02-22T18:45:03.363Z,40.59
2023-02-22T18:47:10.649Z,40.84
2023-02-22T18:49:17.317Z,40.76
2023-02-22T18:51:21.958Z,40.83
2023-02-22T18:53:26.395Z,40.90
2023-02-22T18:55:30.935Z,40.83
2023-02-22T18:57:36.068Z,40.76
2023-02-22T18:59:40.900Z,40.89
2023-02-22T19:01:49.168Z,40.93
2023-02-22T19:03:56.872Z,41.14
2023-02-22T19:06:03.856Z,40.76
2023-02-22T19:08:11.432Z,41.13
2023-02-22T19:10:16.027Z,40.81
2023-02-22T19:12:20.841Z,40.78
2023-02-22T19:14:26.897Z,40.79
2023-02-22T19:16:32.096Z,40.84
2023-02-22T19:18:36.699Z,41.07
2023-02-22T19:20:44.234Z,41.05
2023-02-22T19:22:49.335Z,41.18
2023-02-22T19:24:54.331Z,41.12
2023-02-22T19:27:00.137Z,40.90
2023-02-22T19:29:08.625Z,41.02
2023-02-22T19:31:14.290Z,41.25
2023-02-22T19:33:18.872Z,41.40
2023-02-22T19:35:28.834Z,41.41
2023-02-22T19:37:37.176Z,41.06
2023-02-22T19:39:42.473Z,41.23
2023-02-22T19:41:47.421Z,41.39
2023-02-22T19:43:53.134Z,41.27
2023-02-22T19:45:57.727Z,41.15
2023-02-22T19:48:02.464Z,41.37
2023-02-22T19:50:08.212Z,41.61
2023-02-22T19:52:12.780Z,41.41
2023-02-22T19:54:21.596Z,41.61
2023-02-22T19:56:27.443Z,41.40
2023-02-22T19:58:36.774Z,41.42
2023-02-22T20:00:41.466Z,41.53
2023-02-22T20:02:46.141Z,41.51
2023-02-22T20:04:51.449Z,41.76
2023-02-22T20:06:57.724Z,41.64
2023-02-22T20:09:02.811Z,41.81
2023-02-22T20:11:10.634Z,41.87
2023-02-22T20:13:17.171Z,41.90
2023-02-22T20:15:23.982Z,41.87
2023-02-22T20:17:28.931Z,41.69
2023-02-22T20:19:33.456Z,41.76
2023-02-22T20:21:38.084Z,41.88
2023-02-22T20:23:44.491Z,42.00
2023-02-22T20:25:54.204Z,41.93
2023-02-22T20:28:01.494Z,41.95
2023-02-22T20:30:06.164Z,42.00
2023-02-22T20:32:15.073Z,42.00
2023-02-22T20:34:19.663Z,42.09
2023-02-22T20:36:25.011Z,42.04
2023-02-22T20:38:30.280Z,42.24
2023-02-22T20:40:34.872Z,41.98
2023-02-22T20:42:40.669Z,42.21
2023-02-22T20:44:47.851Z,42.15
2023-02-22T20:46:52.288Z,42.39
2023-02-22T20:48:56.989Z,42.35
2023-02-22T20:51:07.691Z,42.20
2023-02-22T20:53:12.209Z,42.47
2023-02-22T20:55:16.707Z,42.51
2023-02-22T20:57:21.507Z,42.42
2023-02-22T20:59:28.964Z,42.28
2023-02-22T21:01:36.335Z,42.23
2023-02-22T21:03:42.287Z,42.31
2023-02-22T21:05:47.228Z,42.53
2023-02-22T21:07:51.713Z,42.36
2023-02-22T21:09:56.189Z,42.44
2023-02-22T21:12:00.723Z,42.52
2023-02-22T21:14:05.645Z,42.38
2023-02-22T21:16:10.529Z,42.48
2023-02-22T21:18:17.709Z,42.40
2023-02-22T21:20:22.761Z,42.31
2023-02-22T21:22:28.776Z,42.53
2023-02-22T21:24:34.770Z,42.22
2023-02-22T21:26:40.505Z,42.53
2023-02-22T21:28:51.205Z,42.39
2023-02-22T21:30:56.245Z,42.17
2023-02-22T21:33:02.299Z,42.58
2023-02-22T21:35:09.886Z,42.20
2023-02-22T21:37:18.192Z,42.08
2023-02-22T21:39:27.811Z,42.51
2023-02-22T21:41:34.088Z,42.25
2023-02-22T21:43:38.621Z,42.23
2023-02-22T21:45:43.088Z,42.44
2023-02-22T21:47:49.015Z,42.33
2023-02-22T21:49:53.552Z,42.29
2023-02-22T21:52:00.637Z,42.13
2023-02-22T21:54:06.222Z,42.42
2023-02-22T21:56:10.901Z,42.58
2023-02-22T21:58:15.839Z,42.50
2023-02-22T22:00:29.330Z,42.66
2023-02-22T22:02:33.907Z,42.41
2023-02-22T22:04:38.599Z,42.63
2023-02-22T22:06:43.481Z,42.51
2023-02-22T22:08:53.739Z,42.39
2023-02-22T22:10:58.588Z,42.52
2023-02-22T22:13:03.189Z,42.51
2023-02-22T22:15:08.280Z,42.40
2023-02-22T22:17:14.480Z,42.42
2023-02-22T22:19:19.240Z,42.75
2023-02-22T22:21:24.924Z,42.68
2023-02-22T22:23:30.510Z,42.54
2023-02-22T22:25:39.759Z,42.45
2023-02-22T22:27:44.229Z,42.75
2023-02-22T22:29:49.188Z,42.58
2023-02-22T22:31:54.579Z,42.61
2023-02-22T22:33:59.926Z,42.54
2023-02-22T22:36:04.408Z,42.72
2023-02-22T22:38:09.583Z,42.80
2023-02-22T22:40:15.887Z,42.59
2023-02-22T22:42:23.876Z,42.60
2023-02-22T22:44:32.943Z,42.77
2023-02-22T22:46:39.829Z,42.79
2023-02-22T22:48:47.031Z,42.58
2023-02-22T22:51:02.628Z,42.70
2023-02-22T22:53:07.262Z,42.77
2023-02-22T22:55:12.360Z,42.85
2023-02-22T22:57:17.036Z,42.71
2023-02-22T22:59:24.147Z,42.97
2023-02-22T23:01:33.526Z,42.56
2023-02-22T23:03:39.007Z,43.00
2023-02-22T23:05:44.056Z,42.55
2023-02-22T23:07:48.527Z,42.61
2023-02-22T23:09:52.950Z,42.89
2023-02-22T23:12:08.727Z,42.70
2023-02-22T23:14:15.122Z,42.67
2023-02-22T23:16:23.184Z,42.82
2023-02-22T23:18:27.639Z,42.87
2023-02-22T23:20:33.189Z,42.92
2023-02-22T23:22:37.961Z,42.52
2023-02-22T23:24:44.641Z,42.74
2023-02-22T23:26:51.427Z,42.64
2023-02-22T23:28:57.086Z,42.41
2023-02-22T23:31:03.408Z,42.73
2023-02-22T23:33:10.862Z,42.68
2023-02-22T23:35:15.665Z,42.55
2023-02-22T23:37:20.882Z,42.73
2023-02-22T23:39:25.923Z,42.49
2023-02-22T23:41:31.475Z,42.49
2023-02-22T23:43:35.958Z,42.56
2023-02-22T23:45:40.942Z,42.66
2023-02-22T23:47:50.427Z,42.76
2023-02-22T23:49:59.118Z,42.77
2023-02-22T23:52:03.843Z,42.52
2023-02-22T23:54:09.090Z,42.68
2023-02-22T23:56:14.213Z,42.75
2023-02-22T23:58:22.830Z,42.89
